Time;durP1;ratioP1;P1;durP2;ratioP2;P2;SDS_P1;SDS_P2;PMS_P1;PMS_P2;Temp;Humidity;BMP_temperature;BMP_pressure;BME280_temperature;BME280_humidity;BME280_pressure;Samples;Min_cycle;Max_cycle;Signal;HPM_P1;HPM_P2
2023/06/09 00:01:16;;;;;;;8.70;7.77;;;;;;;19.87;53.19;97112.97;5097296;28;20527;-71
2023/06/09 00:03:42;;;;;;;7.53;6.80;;;;;;;19.89;53.40;97109.06;5090318;28;20908;-72
2023/06/09 00:06:08;;;;;;;9.43;7.70;;;;;;;19.90;52.68;97110.69;5092273;28;20253;-71
2023/06/09 00:08:35;;;;;;;8.20;7.40;;;;;;;19.87;52.78;97110.31;5091529;28;20177;-72
2023/06/09 00:11:01;;;;;;;9.33;7.63;;;;;;;19.78;53.02;97109.72;5096557;28;20512;-71
2023/06/09 00:13:27;;;;;;;8.23;7.17;;;;;;;19.77;53.03;97116.91;5090301;28;20460;-73
2023/06/09 00:15:52;;;;;;;15.30;7.23;;;;;;;19.78;52.63;97107.06;5097150;28;20205;-72
2023/06/09 00:18:18;;;;;;;8.50;7.70;;;;;;;19.76;52.70;97115.25;5098497;28;20178;-75
2023/06/09 00:20:44;;;;;;;8.53;7.67;;;;;;;19.70;52.92;97117.94;5089146;28;20576;-72
2023/06/09 00:23:09;;;;;;;11.23;7.90;;;;;;;19.70;53.06;97116.09;5090307;28;20424;-72
2023/06/09 00:25:35;;;;;;;12.30;7.43;;;;;;;19.70;53.10;97116.09;5071017;28;20184;-73
2023/06/09 00:28:01;;;;;;;8.40;7.53;;;;;;;19.71;53.02;97120.38;5072988;28;20251;-72
2023/06/09 00:30:27;;;;;;;10.10;7.47;;;;;;;19.67;53.04;97115.72;5072740;28;20197;-73
2023/06/09 00:32:52;;;;;;;9.37;8.47;;;;;;;19.54;53.44;97111.25;5091371;28;20239;-74
2023/06/09 00:35:18;;;;;;;10.20;7.60;;;;;;;19.50;53.58;97105.56;5088896;28;20749;-72
2023/06/09 00:37:44;;;;;;;8.10;7.30;;;;;;;19.41;53.70;97112.97;5089284;28;20186;-73
2023/06/09 00:40:11;;;;;;;8.57;7.77;;;;;;;19.46;53.54;97113.16;5088955;28;20217;-73
2023/06/09 00:42:36;;;;;;;7.77;7.03;;;;;;;19.47;53.63;97114.78;5101398;28;20911;-73
2023/06/09 00:45:02;;;;;;;8.17;7.37;;;;;;;19.49;53.29;97111.91;5071750;28;20514;-74
2023/06/09 00:47:28;;;;;;;7.73;6.97;;;;;;;19.36;53.50;97112.78;5088742;28;20185;-74
2023/06/09 00:49:53;;;;;;;9.10;8.07;;;;;;;19.37;53.52;97111.78;5071057;28;20233;-74
2023/06/09 00:52:19;;;;;;;8.67;7.20;;;;;;;19.40;53.40;97106.03;5089442;28;20663;-73
2023/06/09 00:54:45;;;;;;;8.03;7.33;;;;;;;19.40;53.21;97106.03;5088527;28;20290;-72
2023/06/09 00:57:11;;;;;;;9.00;8.10;;;;;;;19.34;53.12;97104.22;5089174;28;20431;-73
2023/06/09 00:59:36;;;;;;;9.03;8.20;;;;;;;19.27;53.76;97100.78;5070744;28;20233;-73
2023/06/09 01:02:04;;;;;;;8.47;7.57;;;;;;;19.17;53.84;97112.63;5095183;28;20196;-73
2023/06/09 01:04:34;;;;;;;14.00;7.80;;;;;;;19.19;53.76;97092.00;5096898;28;20197;-72
2023/06/09 01:07:16;;;;;;;8.87;7.97;;;;;;;19.19;53.80;97102.63;5088506;28;20442;-72
2023/06/09 01:09:58;;;;;;;8.63;7.83;;;;;;;19.25;53.85;97108.13;5072951;28;20642;-73
2023/06/09 01:12:34;;;;;;;8.07;7.33;;;;;;;19.28;53.55;97107.72;5089204;28;20416;-72
2023/06/09 01:15:19;;;;;;;11.90;7.60;;;;;;;19.26;53.34;97102.59;5082199;28;20487;-72
2023/06/09 01:17:48;;;;;;;10.63;7.83;;;;;;;19.26;53.33;97104.47;5070398;28;20434;-73
2023/06/09 01:20:20;;;;;;;10.30;7.50;;;;;;;19.23;53.09;97100.34;5088688;28;20529;-71
2023/06/09 01:22:54;;;;;;;8.60;7.03;;;;;;;19.03;53.25;97106.56;5070148;28;20473;-70
2023/06/09 01:25:34;;;;;;;10.80;7.30;;;;;;;18.94;53.58;97107.00;5091237;28;20427;-71
2023/06/09 01:28:03;;;;;;;8.20;7.47;;;;;;;18.85;53.79;97115.16;5080546;28;20462;-71
2023/06/09 01:30:30;;;;;;;9.67;7.70;;;;;;;18.82;54.38;97114.78;5089672;28;20490;-71
2023/06/09 01:32:59;;;;;;;9.27;6.90;;;;;;;18.87;54.33;97121.09;5070716;28;20412;-73
2023/06/09 01:35:25;;;;;;;8.87;7.37;;;;;;;18.96;53.90;97104.94;5070308;28;20460;-70
2023/06/09 01:37:52;;;;;;;8.00;6.80;;;;;;;18.91;54.20;97107.38;5087723;28;20476;-71
2023/06/09 01:40:19;;;;;;;9.33;7.10;;;;;;;18.91;53.87;97108.22;5069726;28;20518;-73
2023/06/09 01:42:44;;;;;;;7.77;7.07;;;;;;;18.92;53.57;97107.19;5090534;28;20428;-72
2023/06/09 01:45:10;;;;;;;8.13;7.30;;;;;;;18.85;53.98;97099.22;5092304;28;20442;-71
2023/06/09 01:47:35;;;;;;;10.50;7.27;;;;;;;18.88;53.70;97104.13;5087617;28;20258;-73
2023/06/09 01:50:03;;;;;;;8.03;7.20;;;;;;;18.88;53.72;97106.78;5094595;28;20197;-72
2023/06/09 01:52:42;;;;;;;8.10;7.20;;;;;;;18.88;53.52;97104.13;5072133;28;20173;-73
2023/06/09 01:55:23;;;;;;;7.73;7.03;;;;;;;18.86;53.48;97106.19;5088805;28;20463;-72
2023/06/09 01:58:03;;;;;;;7.20;6.50;;;;;;;18.84;53.58;97102.06;5083122;28;20803;-73
2023/06/09 02:00:29;;;;;;;9.07;8.10;;;;;;;18.79;53.86;97105.34;5092608;28;20450;-73
2023/06/09 02:02:57;;;;;;;8.60;7.67;;;;;;;18.76;53.73;97108.44;5074014;28;21006;-73
2023/06/09 02:05:23;;;;;;;8.03;7.33;;;;;;;18.74;53.58;97105.19;5078382;28;20512;-72
2023/06/09 02:07:49;;;;;;;7.60;6.90;;;;;;;18.73;53.68;97095.59;5086977;28;20799;-72
2023/06/09 02:10:15;;;;;;;8.60;6.63;;;;;;;18.67;53.53;97091.09;5070317;28;20208;-72
2023/06/09 02:12:41;;;;;;;8.10;7.30;;;;;;;18.66;53.83;97100.91;5087954;28;20916;-72
2023/06/09 02:15:07;;;;;;;7.53;6.83;;;;;;;18.70;54.01;97091.50;5088896;28;20462;-72
2023/06/09 02:17:33;;;;;;;8.03;7.23;;;;;;;18.76;53.85;97089.03;5096288;28;20254;-72
2023/06/09 02:19:59;;;;;;;7.40;6.60;;;;;;;18.78;53.81;97097.63;5088712;28;20448;-70
2023/06/09 02:22:24;;;;;;;8.37;7.33;;;;;;;18.81;53.84;97092.69;5057399;28;20173;-73
2023/06/09 02:24:50;;;;;;;7.27;6.57;;;;;;;18.83;53.72;97095.97;5035692;28;20185;-71
2023/06/09 02:27:16;;;;;;;8.13;7.43;;;;;;;18.75;53.37;97088.22;5087920;28;20178;-72
2023/06/09 02:29:42;;;;;;;8.13;7.20;;;;;;;18.60;54.06;97095.59;5087439;28;20577;-72
2023/06/09 02:32:08;;;;;;;8.50;7.70;;;;;;;18.50;54.07;97091.53;5089609;28;20436;-72
2023/06/09 02:34:34;;;;;;;9.40;7.70;;;;;;;18.51;53.90;97093.19;5087513;28;20628;-73
2023/06/09 02:37:00;;;;;;;8.30;6.60;;;;;;;18.50;53.62;97096.84;5091314;28;20182;-72
2023/06/09 02:39:26;;;;;;;8.27;7.27;;;;;;;18.50;53.60;97091.53;5089780;28;20452;-72
2023/06/09 02:41:51;;;;;;;10.27;7.00;;;;;;;18.48;53.90;97095.41;5073240;28;21082;-73
2023/06/09 02:44:17;;;;;;;7.90;7.10;;;;;;;18.53;53.82;97085.81;5092580;28;20169;-74
2023/06/09 02:46:43;;;;;;;7.80;6.17;;;;;;;18.58;53.68;97096.63;5097596;28;20189;-73
2023/06/09 02:49:09;;;;;;;9.30;7.60;;;;;;;18.57;53.48;97092.34;5091613;28;20193;-72
2023/06/09 02:51:35;;;;;;;7.80;7.10;;;;;;;18.50;53.78;97086.22;5097784;28;20431;-71
2023/06/09 02:54:01;;;;;;;7.60;6.80;;;;;;;18.48;53.69;97096.22;5090742;28;20181;-71
2023/06/09 02:56:27;;;;;;;7.70;6.90;;;;;;;18.50;53.48;97096.84;5091846;28;20913;-73
2023/06/09 02:58:53;;;;;;;8.30;7.47;;;;;;;18.43;53.69;97098.66;5070764;28;20423;-73
2023/06/09 03:01:20;;;;;;;10.93;7.50;;;;;;;18.43;54.01;97101.31;5092615;28;20205;-73
2023/06/09 03:03:46;;;;;;;7.83;6.73;;;;;;;18.46;53.80;97106.22;5071095;28;20217;-72
2023/06/09 03:06:13;;;;;;;7.63;6.83;;;;;;;18.40;53.79;97101.72;5091180;28;21220;-73
2023/06/09 03:08:42;;;;;;;8.37;7.50;;;;;;;18.30;53.54;97103.97;5090676;28;20424;-73
2023/06/09 03:11:07;;;;;;;8.07;7.27;;;;;;;18.35;53.86;97104.19;5073249;28;20435;-71
2023/06/09 03:13:33;;;;;;;8.63;7.30;;;;;;;18.35;53.89;97101.53;5072845;28;20860;-73
2023/06/09 03:15:58;;;;;;;7.90;7.20;;;;;;;18.36;53.88;97105.84;5091054;28;20213;-72
2023/06/09 03:18:26;;;;;;;7.50;6.80;;;;;;;18.36;53.95;97108.47;5091065;28;20181;-72
2023/06/09 03:20:51;;;;;;;7.50;6.77;;;;;;;18.33;54.16;97098.28;5090625;28;20653;-73
2023/06/09 03:23:20;;;;;;;9.63;7.17;;;;;;;18.36;54.09;97100.53;5090317;28;20460;-72
2023/06/09 03:25:46;;;;;;;10.80;6.90;;;;;;;18.36;54.02;97101.31;5099247;28;20181;-72
2023/06/09 03:28:12;;;;;;;9.80;7.17;;;;;;;18.38;54.02;97101.16;5095751;28;20434;-74
2023/06/09 03:30:38;;;;;;;7.73;6.93;;;;;;;18.35;53.99;97106.84;5091881;28;20205;-71
2023/06/09 03:33:03;;;;;;;7.70;6.90;;;;;;;18.31;53.89;97108.25;5079947;28;20436;-72
2023/06/09 03:35:29;;;;;;;12.47;7.50;;;;;;;18.29;53.94;97097.88;5089233;28;20200;-71
2023/06/09 03:37:54;;;;;;;7.57;6.80;;;;;;;18.26;53.88;97104.41;5089257;28;20186;-72
2023/06/09 03:40:20;;;;;;;8.37;7.60;;;;;;;18.19;53.74;97108.88;5089946;28;20202;-72
2023/06/09 03:42:45;;;;;;;9.83;6.97;;;;;;;18.10;54.47;97110.09;5097942;28;20653;-72
2023/06/09 03:45:11;;;;;;;8.07;7.27;;;;;;;18.13;54.18;97104.41;5091881;28;20678;-74
2023/06/09 03:47:36;;;;;;;8.17;7.47;;;;;;;18.11;54.36;97107.25;5092382;28;20260;-72
2023/06/09 03:50:02;;;;;;;9.73;8.10;;;;;;;18.09;54.02;97106.63;5092316;28;20295;-71
2023/06/09 03:52:27;;;;;;;15.23;7.70;;;;;;;18.08;54.63;97110.28;5092698;28;20188;-70
2023/06/09 03:54:53;;;;;;;8.13;6.97;;;;;;;18.13;54.74;97109.72;5091747;28;20683;-74
2023/06/09 03:57:18;;;;;;;8.77;7.47;;;;;;;18.18;54.44;97109.91;5097393;28;20832;-72
2023/06/09 03:59:44;;;;;;;9.50;7.87;;;;;;;18.24;54.47;97113.56;5072955;28;20312;-72
2023/06/09 04:02:09;;;;;;;9.23;8.10;;;;;;;18.27;54.44;97113.16;5097906;28;20182;-73
2023/06/09 04:04:35;;;;;;;10.33;8.27;;;;;;;18.26;54.61;97112.38;5100710;28;20563;-71
2023/06/09 04:07:00;;;;;;;9.30;8.20;;;;;;;18.26;55.01;97107.06;5089196;28;20177;-72
2023/06/09 04:09:27;;;;;;;8.37;7.57;;;;;;;18.33;54.66;97111.53;5089621;28;20221;-73
2023/06/09 04:11:52;;;;;;;9.53;7.60;;;;;;;18.24;54.80;97113.56;5088968;28;20512;-71
2023/06/09 04:14:18;;;;;;;12.53;7.70;;;;;;;18.31;54.75;97113.56;5088526;28;20483;-73
2023/06/09 04:16:45;;;;;;;8.70;7.80;;;;;;;18.34;54.54;97113.16;5089780;28;20190;-73
2023/06/09 04:19:10;;;;;;;9.07;7.50;;;;;;;18.27;54.79;97113.97;5092474;28;20186;-73
2023/06/09 04:21:37;;;;;;;8.70;7.77;;;;;;;18.33;54.98;97122.16;5089130;28;20418;-72
2023/06/09 04:24:02;;;;;;;10.00;8.03;;;;;;;18.38;54.75;97125.03;5083640;28;20184;-73
2023/06/09 04:26:29;;;;;;;8.80;7.90;;;;;;;18.37;54.44;97124.19;5097642;28;20523;-72
2023/06/09 04:28:55;;;;;;;8.50;7.70;;;;;;;18.43;55.02;97130.50;5094518;28;20181;-72
2023/06/09 04:31:23;;;;;;;8.27;7.30;;;;;;;18.50;54.94;97123.38;5088721;28;20470;-71
2023/06/09 04:33:51;;;;;;;8.77;7.47;;;;;;;18.62;54.88;97128.88;5087398;28;20560;-70
2023/06/09 04:36:17;;;;;;;8.53;7.53;;;;;;;18.68;55.16;97124.56;5088976;28;20427;-72
2023/06/09 04:38:42;;;;;;;9.10;8.20;;;;;;;18.72;54.59;97120.50;5084205;28;20781;-71
2023/06/09 04:41:08;;;;;;;9.80;8.90;;;;;;;18.82;55.31;97114.78;5100106;28;20450;-71
2023/06/09 04:43:34;;;;;;;10.70;9.37;;;;;;;18.93;55.36;97107.97;5070209;28;21051;-71
2023/06/09 04:46:00;;;;;;;8.27;7.53;;;;;;;19.02;55.34;97109.44;5088260;28;20469;-72
2023/06/09 04:48:29;;;;;;;8.70;7.90;;;;;;;19.11;55.56;97097.56;5088635;28;20177;-70
2023/06/09 04:50:56;;;;;;;9.27;8.30;;;;;;;19.24;55.23;97101.19;5069115;28;20241;-71
2023/06/09 04:53:22;;;;;;;8.43;7.53;;;;;;;19.35;55.34;97103.19;5088377;28;20424;-72
2023/06/09 04:55:48;;;;;;;9.63;8.70;;;;;;;19.43;54.94;97100.28;5087947;28;20474;-70
2023/06/09 04:58:15;;;;;;;10.73;8.30;;;;;;;19.53;54.76;97109.66;5088433;28;20193;-72
2023/06/09 05:00:41;;;;;;;8.97;8.07;;;;;;;19.48;54.41;97108.44;5087172;28;20444;-70
2023/06/09 05:03:06;;;;;;;8.57;7.67;;;;;;;19.52;54.98;97113.34;5091954;28;20982;-71
2023/06/09 05:05:32;;;;;;;9.03;8.23;;;;;;;19.56;54.77;97106.56;5092133;28;20181;-70
2023/06/09 05:07:57;;;;;;;9.60;8.60;;;;;;;19.65;54.87;97113.28;5088394;28;20181;-71
2023/06/09 05:10:23;;;;;;;11.80;8.50;;;;;;;19.74;54.73;97121.78;5088294;28;20201;-72
2023/06/09 05:12:48;;;;;;;15.30;9.07;;;;;;;19.81;54.48;97125.25;5094522;28;20270;-70
2023/06/09 05:15:14;;;;;;;10.47;9.03;;;;;;;19.86;54.79;97127.25;5091764;28;20590;-71
2023/06/09 05:17:42;;;;;;;9.90;8.90;;;;;;;19.90;54.66;97120.53;5069914;28;20260;-72
2023/06/09 05:20:11;;;;;;;10.70;9.70;;;;;;;19.96;54.31;97127.63;5062636;28;20201;-70
2023/06/09 05:22:37;;;;;;;11.10;9.07;;;;;;;20.01;54.17;97127.81;5096452;28;20426;-72
2023/06/09 05:25:03;;;;;;;12.87;9.43;;;;;;;20.06;54.12;97124.50;5087422;28;20477;-71
2023/06/09 05:27:29;;;;;;;10.07;8.60;;;;;;;20.18;54.20;97127.28;5070286;28;20525;-70
2023/06/09 05:29:55;;;;;;;9.77;8.43;;;;;;;20.25;54.15;97125.41;5087217;28;20536;-71
2023/06/09 05:32:21;;;;;;;9.37;7.90;;;;;;;20.37;53.56;97129.00;5084584;28;20436;-71
2023/06/09 05:34:46;;;;;;;8.97;8.20;;;;;;;20.40;53.19;97131.22;5089312;28;20241;-72
2023/06/09 05:37:14;;;;;;;9.30;8.47;;;;;;;20.53;53.33;97132.16;5088161;28;20182;-71
2023/06/09 05:39:40;;;;;;;11.50;7.67;;;;;;;20.63;53.52;97132.47;5087505;28;20209;-72
2023/06/09 05:42:08;;;;;;;8.60;7.17;;;;;;;20.82;53.17;97127.19;5085685;28;20430;-71
2023/06/09 05:44:33;;;;;;;9.83;8.17;;;;;;;20.98;52.42;97139.94;5085324;28;20955;-71
2023/06/09 05:46:59;;;;;;;9.50;7.23;;;;;;;21.12;52.13;97132.59;5090268;28;20420;-72
2023/06/09 05:49:24;;;;;;;10.10;7.40;;;;;;;21.25;51.48;97131.66;5094764;28;20703;-72
2023/06/09 05:51:50;;;;;;;8.03;7.23;;;;;;;21.37;50.95;97134.38;5085834;28;20178;-72
2023/06/09 05:54:16;;;;;;;8.03;7.20;;;;;;;21.35;50.99;97143.63;5088551;28;20693;-71
2023/06/09 05:56:44;;;;;;;7.20;6.30;;;;;;;21.50;50.59;97138.75;5088171;28;20238;-71
2023/06/09 05:59:10;;;;;;;7.60;6.90;;;;;;;21.67;50.30;97136.28;5089162;28;20416;-70
2023/06/09 06:01:36;;;;;;;10.00;7.60;;;;;;;21.75;49.32;97143.19;5088300;28;20424;-71
2023/06/09 06:04:02;;;;;;;8.00;7.30;;;;;;;21.78;49.22;97137.41;5088478;28;20420;-72
2023/06/09 06:06:29;;;;;;;9.37;8.20;;;;;;;21.72;49.62;97138.28;5088338;28;20495;-72
2023/06/09 06:08:55;;;;;;;9.13;7.80;;;;;;;21.79;49.32;97134.50;5089273;28;20733;-69
2023/06/09 06:11:20;;;;;;;11.63;7.70;;;;;;;21.94;48.99;97125.28;5089400;28;20517;-70
2023/06/09 06:13:46;;;;;;;10.10;6.87;;;;;;;22.10;48.90;97131.81;5090584;28;20550;-71
2023/06/09 06:16:11;;;;;;;7.63;6.83;;;;;;;22.25;48.87;97129.53;5092489;28;20243;-69
2023/06/09 06:18:37;;;;;;;7.67;6.97;;;;;;;22.42;48.54;97134.22;5092338;28;20184;-70
2023/06/09 06:21:02;;;;;;;7.40;6.27;;;;;;;22.59;48.40;97144.22;5092908;28;20202;-70
2023/06/09 06:23:28;;;;;;;7.80;6.80;;;;;;;22.78;48.19;97142.25;5091543;28;20174;-70
2023/06/09 06:25:53;;;;;;;6.57;6.00;;;;;;;22.89;47.75;97148.66;5098478;28;20185;-70
2023/06/09 06:28:19;;;;;;;8.10;7.33;;;;;;;22.96;46.67;97149.31;5094215;28;20765;-71
2023/06/09 06:30:44;;;;;;;7.93;7.13;;;;;;;23.01;46.61;97144.09;5099648;28;20216;-74
2023/06/09 06:33:10;;;;;;;5.70;5.20;;;;;;;23.20;46.89;97138.63;5073717;28;20173;-70
2023/06/09 06:35:36;;;;;;;6.93;6.33;;;;;;;23.39;46.67;97141.97;5091879;28;20245;-71
2023/06/09 06:38:01;;;;;;;6.40;5.73;;;;;;;23.54;46.40;97144.94;5098178;28;20216;-73
2023/06/09 06:40:27;;;;;;;6.43;5.83;;;;;;;23.66;45.97;97142.25;5091528;28;20328;-70
2023/06/09 06:42:53;;;;;;;8.50;5.63;;;;;;;23.82;45.89;97145.22;5097851;28;20232;-72
2023/06/09 06:45:18;;;;;;;6.20;5.70;;;;;;;23.97;45.67;97140.16;5091856;28;20424;-72
2023/06/09 06:47:45;;;;;;;5.63;5.13;;;;;;;24.10;44.83;97136.38;5091700;28;20703;-71
2023/06/09 06:50:13;;;;;;;9.00;5.43;;;;;;;24.20;43.97;97133.88;5092904;28;20201;-71
2023/06/09 06:52:39;;;;;;;6.80;6.20;;;;;;;24.28;43.18;97138.03;5071296;28;20458;-72
2023/06/09 06:55:07;;;;;;;5.70;5.20;;;;;;;24.37;43.43;97128.53;5090011;28;20463;-71
2023/06/09 06:57:34;;;;;;;6.40;5.80;;;;;;;24.47;43.41;97137.75;5091230;28;20177;-71
2023/06/09 06:59:59;;;;;;;6.80;5.40;;;;;;;24.59;42.70;97138.50;5098126;28;20443;-71
2023/06/09 07:02:25;;;;;;;9.53;5.30;;;;;;;24.67;42.02;97146.13;5091494;28;20424;-72
2023/06/09 07:04:50;;;;;;;5.23;4.73;;;;;;;24.72;41.66;97140.06;5079600;28;20185;-70
2023/06/09 07:07:16;;;;;;;7.03;4.73;;;;;;;24.86;41.21;97148.56;5091462;28;20269;-71
2023/06/09 07:09:41;;;;;;;12.03;4.40;;;;;;;24.96;41.29;97148.72;5090905;28;20205;-71
2023/06/09 07:12:07;;;;;;;4.70;4.30;;;;;;;25.04;40.92;97147.47;5093807;28;20638;-70
2023/06/09 07:14:33;;;;;;;5.40;4.43;;;;;;;25.15;40.32;97154.59;5094935;28;20330;-70
2023/06/09 07:16:59;;;;;;;6.10;4.27;;;;;;;25.22;39.91;97157.09;5099304;28;20188;-72
2023/06/09 07:19:25;;;;;;;4.50;3.70;;;;;;;25.35;39.64;97147.06;5101962;28;20666;-72
2023/06/09 07:21:50;;;;;;;5.37;4.00;;;;;;;25.46;39.26;97154.19;5090698;28;20216;-70
2023/06/09 07:24:15;;;;;;;9.73;3.97;;;;;;;25.56;39.02;97159.72;5090474;28;20264;-73
2023/06/09 07:26:41;;;;;;;4.63;4.23;;;;;;;25.58;38.26;97154.88;5099319;28;20193;-72
2023/06/09 07:29:06;;;;;;;4.47;4.03;;;;;;;25.70;38.52;97164.69;5090659;28;20174;-71
2023/06/09 07:31:32;;;;;;;4.70;4.30;;;;;;;25.80;37.59;97159.44;5091473;28;20263;-73
2023/06/09 07:33:57;;;;;;;4.70;3.80;;;;;;;25.84;37.85;97167.78;5072034;28;20182;-73
2023/06/09 07:36:24;;;;;;;4.50;4.10;;;;;;;25.99;38.18;97167.13;5091012;28;20288;-71
2023/06/09 07:38:49;;;;;;;7.43;4.00;;;;;;;25.98;37.31;97157.44;5086764;28;20189;-72
2023/06/09 07:41:15;;;;;;;4.53;4.10;;;;;;;26.00;37.86;97158.00;5090470;28;20809;-71
2023/06/09 07:43:40;;;;;;;5.10;4.10;;;;;;;26.13;37.37;97151.47;5098541;28;20194;-71
2023/06/09 07:46:07;;;;;;;4.50;4.10;;;;;;;25.94;37.73;97156.34;5089614;28;20669;-71
2023/06/09 07:48:32;;;;;;;4.03;3.70;;;;;;;26.17;37.43;97152.56;5090463;28;20208;-71
2023/06/09 07:50:58;;;;;;;4.50;3.90;;;;;;;26.29;37.54;97157.78;5089986;28;20432;-69
2023/06/09 07:53:24;;;;;;;4.40;4.10;;;;;;;26.40;36.67;97156.81;5090213;28;20182;-71
2023/06/09 07:55:49;;;;;;;4.30;3.90;;;;;;;26.59;37.35;97151.06;5090125;28;20816;-71
2023/06/09 07:58:15;;;;;;;5.00;3.53;;;;;;;26.71;36.19;97157.06;5095243;28;20192;-71
2023/06/09 08:00:41;;;;;;;4.37;3.97;;;;;;;26.79;35.93;97153.91;5091353;28;20213;-70
2023/06/09 08:03:06;;;;;;;3.80;3.50;;;;;;;26.99;36.21;97147.03;5092418;28;20177;-70
2023/06/09 08:05:32;;;;;;;3.63;3.33;;;;;;;27.16;35.36;97148.72;5093826;28;20802;-71
2023/06/09 08:08:00;;;;;;;4.80;3.63;;;;;;;27.30;34.84;97144.50;5089711;28;20181;-70
2023/06/09 08:10:25;;;;;;;4.00;3.60;;;;;;;27.45;34.91;97143.78;5089825;28;20270;-70
2023/06/09 08:12:51;;;;;;;3.60;3.33;;;;;;;27.54;34.60;97138.69;5090220;28;20474;-69
2023/06/09 08:15:16;;;;;;;3.30;2.97;;;;;;;27.59;33.48;97147.59;5071115;28;20206;-70
2023/06/09 08:17:42;;;;;;;4.63;3.13;;;;;;;27.69;33.88;97141.44;5096726;28;20184;-70
2023/06/09 08:20:07;;;;;;;3.40;3.20;;;;;;;27.84;33.30;97140.66;5088918;28;20293;-70
2023/06/09 08:22:33;;;;;;;3.60;3.40;;;;;;;27.62;32.96;97140.88;5089884;28;20193;-70
2023/06/09 08:24:59;;;;;;;4.70;3.87;;;;;;;27.53;33.33;97137.91;5088506;28;20177;-72
2023/06/09 08:27:25;;;;;;;3.00;2.80;;;;;;;27.71;33.52;97138.47;5090106;28;20178;-70
2023/06/09 08:29:50;;;;;;;3.60;3.30;;;;;;;27.85;34.13;97136.09;5090831;28;20448;-71
2023/06/09 08:32:16;;;;;;;4.33;3.20;;;;;;;27.95;33.50;97136.13;5093067;28;20189;-72
2023/06/09 08:34:42;;;;;;;4.80;3.30;;;;;;;28.04;33.98;97126.44;5089342;28;20216;-72
2023/06/09 08:37:11;;;;;;;3.30;3.00;;;;;;;27.98;32.98;97132.88;5088612;28;20415;-71
2023/06/09 08:39:36;;;;;;;5.57;3.23;;;;;;;28.00;33.16;97129.94;5089087;28;20209;-72
2023/06/09 08:42:06;;;;;;;4.00;3.10;;;;;;;28.20;33.77;97123.78;5089031;28;20572;-71
2023/06/09 08:44:38;;;;;;;8.03;3.33;;;;;;;28.33;33.71;97123.25;5074444;28;20256;-70
2023/06/09 08:47:04;;;;;;;3.60;3.40;;;;;;;28.54;33.77;97117.06;5089287;28;20528;-72
2023/06/09 08:49:29;;;;;;;4.40;4.00;;;;;;;28.69;33.99;97119.69;5067841;28;20453;-72
2023/06/09 08:51:57;;;;;;;7.67;4.10;;;;;;;28.85;33.87;97112.44;5070998;28;20180;-71
2023/06/09 08:54:23;;;;;;;3.50;3.00;;;;;;;29.01;33.13;97117.78;5092879;28;20229;-69
2023/06/09 08:56:51;;;;;;;3.33;3.10;;;;;;;29.18;32.81;97106.66;5076867;28;20416;-70
2023/06/09 08:59:16;;;;;;;3.60;3.30;;;;;;;29.33;32.99;97111.19;5096891;28;20755;-71
2023/06/09 09:01:41;;;;;;;4.40;4.00;;;;;;;29.49;32.89;97111.97;5072625;28;20540;-69
2023/06/09 09:04:07;;;;;;;3.90;3.60;;;;;;;29.64;32.70;97117.28;5088329;28;20182;-69
2023/06/09 09:06:33;;;;;;;5.87;3.90;;;;;;;29.73;32.29;97114.81;5089131;28;20208;-69
2023/06/09 09:08:59;;;;;;;5.03;4.53;;;;;;;29.75;32.12;97112.63;5089436;28;20212;-71
2023/06/09 09:11:25;;;;;;;4.40;4.10;;;;;;;29.81;32.83;97116.09;5096872;28;20443;-71
2023/06/09 09:13:51;;;;;;;4.40;4.00;;;;;;;29.85;32.30;97123.38;5093571;28;20194;-71
2023/06/09 09:16:17;;;;;;;4.10;3.70;;;;;;;29.98;32.84;97124.66;5088800;28;20574;-70
2023/06/09 09:18:49;;;;;;;3.23;2.90;;;;;;;29.82;31.16;97123.09;5095533;28;20192;-70
2023/06/09 09:21:22;;;;;;;3.87;2.67;;;;;;;29.80;30.56;97126.09;5088484;28;20220;-69
2023/06/09 09:23:59;;;;;;;3.23;3.00;;;;;;;29.53;29.83;97132.72;5088428;28;20420;-70
2023/06/09 09:26:28;;;;;;;3.50;2.57;;;;;;;29.51;30.18;97128.69;5087085;28;20411;-70
2023/06/09 09:28:56;;;;;;;3.00;2.80;;;;;;;29.65;30.91;97118.06;5087961;28;20520;-71
2023/06/09 09:31:30;;;;;;;3.10;2.47;;;;;;;29.79;30.25;97127.19;5089851;28;20846;-70
2023/06/09 09:33:55;;;;;;;4.83;2.77;;;;;;;29.68;30.74;97120.22;5087505;28;21160;-69
2023/06/09 09:36:21;;;;;;;3.20;3.00;;;;;;;29.80;30.70;97118.00;5088688;28;20466;-72
2023/06/09 09:38:46;;;;;;;3.43;3.13;;;;;;;29.83;29.94;97112.03;5088495;28;20563;-72
2023/06/09 09:41:15;;;;;;;3.03;2.83;;;;;;;29.53;30.72;97108.44;5087921;28;20217;-72
2023/06/09 09:43:40;;;;;;;2.93;2.73;;;;;;;29.91;31.22;97109.81;5095883;28;20539;-73
2023/06/09 09:46:07;;;;;;;2.90;2.70;;;;;;;30.02;30.07;97101.41;5088617;28;20424;-71
2023/06/09 09:48:36;;;;;;;3.67;3.37;;;;;;;30.29;30.29;97099.31;5086163;28;20561;-71
2023/06/09 09:51:02;;;;;;;4.20;2.83;;;;;;;30.38;29.54;97092.19;5086309;28;20869;-70
2023/06/09 09:53:28;;;;;;;9.07;3.00;;;;;;;30.59;30.25;97100.94;5072395;28;20460;-68
2023/06/09 09:55:55;;;;;;;4.00;3.10;;;;;;;30.79;30.15;97091.81;5089332;28;20547;-71
2023/06/09 09:58:33;;;;;;;3.53;2.90;;;;;;;30.90;28.90;97091.72;5087761;28;20180;-71
2023/06/09 10:01:03;;;;;;;12.37;3.20;;;;;;;30.87;29.31;97086.91;5071228;28;21167;-69
2023/06/09 10:03:29;;;;;;;4.33;2.93;;;;;;;31.03;29.17;97091.03;5087937;28;20473;-70
2023/06/09 10:05:55;;;;;;;3.17;2.90;;;;;;;31.14;29.22;97086.34;5096427;28;20423;-71
2023/06/09 10:08:26;;;;;;;3.07;2.80;;;;;;;31.10;28.78;97091.50;5088045;28;20420;-71
2023/06/09 10:10:53;;;;;;;3.30;3.00;;;;;;;31.28;29.24;97085.63;5078036;28;20943;-72
2023/06/09 10:13:19;;;;;;;2.93;2.73;;;;;;;31.46;28.73;97089.47;5087015;28;20416;-71
2023/06/09 10:15:45;;;;;;;3.70;2.87;;;;;;;31.39;27.27;97092.53;5087937;28;20481;-70
2023/06/09 10:18:12;;;;;;;3.37;2.70;;;;;;;31.39;28.01;97090.59;5087716;28;20510;-70
2023/06/09 10:20:41;;;;;;;2.60;2.50;;;;;;;31.45;28.02;97085.94;5088274;28;20733;-69
2023/06/09 10:23:06;;;;;;;3.10;2.90;;;;;;;31.47;27.42;97082.94;5094792;28;20456;-73
2023/06/09 10:25:32;;;;;;;3.30;2.60;;;;;;;31.57;27.74;97082.81;5073854;28;20445;-71
2023/06/09 10:27:58;;;;;;;2.80;2.60;;;;;;;31.62;27.50;97085.44;5071440;28;20265;-72
2023/06/09 10:30:23;;;;;;;2.70;2.50;;;;;;;31.70;27.41;97084.00;5087551;28;20201;-70
2023/06/09 10:32:55;;;;;;;9.60;2.27;;;;;;;31.66;26.84;97089.16;5091580;28;20178;-72
2023/06/09 10:35:25;;;;;;;2.20;2.00;;;;;;;31.64;27.03;97088.63;5072619;28;20205;-71
2023/06/09 10:37:51;;;;;;;2.83;2.20;;;;;;;31.73;26.92;97085.31;5081736;28;20431;-71
2023/06/09 10:40:28;;;;;;;4.00;2.63;;;;;;;31.43;26.38;97092.75;5089248;28;20504;-72
2023/06/09 10:43:12;;;;;;;2.53;2.33;;;;;;;31.60;26.54;97086.81;5070346;28;20197;-72
2023/06/09 10:45:52;;;;;;;2.20;2.10;;;;;;;31.74;26.14;97086.94;5086602;28;20463;-70
2023/06/09 10:48:48;;;;;;;2.13;2.03;;;;;;;31.78;25.14;97085.22;5096034;28;20476;-70
2023/06/09 10:51:29;;;;;;;2.40;2.30;;;;;;;31.89;25.43;97085.91;5078218;28;20447;-71
2023/06/09 10:54:12;;;;;;;2.30;2.20;;;;;;;31.85;25.45;97081.06;5085823;28;20416;-71
2023/06/09 10:56:41;;;;;;;3.67;2.37;;;;;;;31.89;25.74;97083.19;5094077;28;20853;-70
2023/06/09 10:59:25;;;;;;;3.77;2.50;;;;;;;32.01;25.08;97078.13;5070137;28;20416;-71
2023/06/09 11:02:00;;;;;;;2.43;2.23;;;;;;;32.15;26.08;97075.44;5094368;28;20803;-71
2023/06/09 11:04:37;;;;;;;4.03;2.50;;;;;;;31.97;25.32;97071.66;5090651;28;20407;-71
2023/06/09 11:07:22;;;;;;;2.77;2.50;;;;;;;32.13;25.51;97064.13;5091130;28;20420;-71
2023/06/09 11:09:48;;;;;;;2.57;2.33;;;;;;;32.14;25.25;97069.22;5090891;28;20443;-70
2023/06/09 11:12:32;;;;;;;2.40;2.20;;;;;;;32.25;25.02;97064.50;5099525;28;20483;-71
2023/06/09 11:14:58;;;;;;;2.57;2.30;;;;;;;32.43;25.12;97065.53;5091101;28;20225;-70
2023/06/09 11:17:33;;;;;;;3.13;2.33;;;;;;;32.54;25.02;97060.72;5091108;28;20407;-70
2023/06/09 11:20:26;;;;;;;6.07;2.63;;;;;;;32.48;24.66;97059.22;5090970;28;20857;-71
2023/06/09 11:22:51;;;;;;;2.40;2.20;;;;;;;32.65;25.12;97057.81;5091072;28;20440;-73
2023/06/09 11:25:23;;;;;;;1.90;1.80;;;;;;;32.62;24.71;97061.94;5090304;28;20409;-72
2023/06/09 11:28:08;;;;;;;3.17;2.07;;;;;;;32.73;24.48;97048.97;5097711;28;20185;-70
2023/06/09 11:30:34;;;;;;;4.13;2.30;;;;;;;32.77;24.55;97052.69;5096061;28;20840;-72
2023/06/09 11:33:01;;;;;;;4.37;1.90;;;;;;;32.86;24.58;97050.94;5083136;28;20429;-71